sensor_id;sensor_type;location;lat;lon;timestamp;P1;durP1;ratioP1;P2;durP2;ratioP2
51459;SDS011;37534;39.772;2.718;2023-04-30T00:01:38;7.72;;;3.70;;
51459;SDS011;37534;39.772;2.718;2023-04-30T00:04:03;7.43;;;3.85;;
51459;SDS011;37534;39.772;2.718;2023-04-30T00:06:29;8.32;;;3.40;;
51459;SDS011;37534;39.772;2.718;2023-04-30T00:08:55;7.00;;;3.58;;
51459;SDS011;37534;39.772;2.718;2023-04-30T00:11:20;10.50;;;3.22;;
51459;SDS011;37534;39.772;2.718;2023-04-30T00:13:46;4.20;;;2.75;;
51459;SDS011;37534;39.772;2.718;2023-04-30T00:16:11;11.80;;;4.20;;
51459;SDS011;37534;39.772;2.718;2023-04-30T00:18:37;12.20;;;3.80;;
51459;SDS011;37534;39.772;2.718;2023-04-30T00:21:03;10.02;;;3.85;;
51459;SDS011;37534;39.772;2.718;2023-04-30T00:23:29;5.80;;;3.10;;
51459;SDS011;37534;39.772;2.718;2023-04-30T00:25:54;13.50;;;3.33;;
51459;SDS011;37534;39.772;2.718;2023-04-30T00:28:20;8.32;;;2.55;;
51459;SDS011;37534;39.772;2.718;2023-04-30T00:30:46;12.48;;;4.80;;
51459;SDS011;37534;39.772;2.718;2023-04-30T00:33:11;7.60;;;3.17;;
51459;SDS011;37534;39.772;2.718;2023-04-30T00:35:37;9.40;;;3.70;;
51459;SDS011;37534;39.772;2.718;2023-04-30T00:38:02;9.90;;;3.33;;
51459;SDS011;37534;39.772;2.718;2023-04-30T00:40:28;5.05;;;2.38;;
51459;SDS011;37534;39.772;2.718;2023-04-30T00:42:54;7.40;;;3.60;;
51459;SDS011;37534;39.772;2.718;2023-04-30T00:45:22;13.55;;;4.22;;
51459;SDS011;37534;39.772;2.718;2023-04-30T00:47:48;12.98;;;3.47;;
51459;SDS011;37534;39.772;2.718;2023-04-30T00:50:14;5.85;;;3.15;;
51459;SDS011;37534;39.772;2.718;2023-04-30T00:52:40;8.60;;;3.63;;
51459;SDS011;37534;39.772;2.718;2023-04-30T00:55:07;6.72;;;3.42;;
51459;SDS011;37534;39.772;2.718;2023-04-30T00:57:34;8.65;;;3.28;;
51459;SDS011;37534;39.772;2.718;2023-04-30T01:00:00;6.22;;;3.58;;
51459;SDS011;37534;39.772;2.718;2023-04-30T01:02:26;8.02;;;3.92;;
51459;SDS011;37534;39.772;2.718;2023-04-30T01:04:51;7.15;;;3.08;;
51459;SDS011;37534;39.772;2.718;2023-04-30T01:07:19;7.75;;;3.80;;
51459;SDS011;37534;39.772;2.718;2023-04-30T01:09:44;11.32;;;3.90;;
51459;SDS011;37534;39.772;2.718;2023-04-30T01:14:49;6.32;;;2.80;;
51459;SDS011;37534;39.772;2.718;2023-04-30T01:17:33;7.65;;;3.42;;
51459;SDS011;37534;39.772;2.718;2023-04-30T01:20:06;4.13;;;3.00;;
51459;SDS011;37534;39.772;2.718;2023-04-30T01:22:35;17.90;;;3.58;;
51459;SDS011;37534;39.772;2.718;2023-04-30T01:28:07;9.25;;;3.17;;
51459;SDS011;37534;39.772;2.718;2023-04-30T01:30:34;6.28;;;3.25;;
51459;SDS011;37534;39.772;2.718;2023-04-30T01:33:01;7.38;;;2.75;;
51459;SDS011;37534;39.772;2.718;2023-04-30T01:35:35;13.13;;;3.28;;
51459;SDS011;37534;39.772;2.718;2023-04-30T01:38:14;6.05;;;2.28;;
51459;SDS011;37534;39.772;2.718;2023-04-30T01:41:08;5.00;;;3.05;;
51459;SDS011;37534;39.772;2.718;2023-04-30T01:43:55;8.73;;;3.60;;
51459;SDS011;37534;39.772;2.718;2023-04-30T01:46:33;6.50;;;2.85;;
51459;SDS011;37534;39.772;2.718;2023-04-30T01:51:40;5.57;;;3.13;;
51459;SDS011;37534;39.772;2.718;2023-04-30T01:57:01;8.82;;;3.33;;
51459;SDS011;37534;39.772;2.718;2023-04-30T01:59:31;6.03;;;3.35;;
51459;SDS011;37534;39.772;2.718;2023-04-30T02:01:58;13.18;;;3.05;;
51459;SDS011;37534;39.772;2.718;2023-04-30T02:04:24;8.40;;;3.08;;
51459;SDS011;37534;39.772;2.718;2023-04-30T02:06:50;2.75;;;2.30;;
51459;SDS011;37534;39.772;2.718;2023-04-30T02:09:15;8.35;;;2.90;;
51459;SDS011;37534;39.772;2.718;2023-04-30T02:11:41;5.95;;;2.78;;
51459;SDS011;37534;39.772;2.718;2023-04-30T02:14:06;6.45;;;2.90;;
51459;SDS011;37534;39.772;2.718;2023-04-30T02:16:32;5.47;;;2.45;;
51459;SDS011;37534;39.772;2.718;2023-04-30T02:18:57;6.40;;;2.95;;
51459;SDS011;37534;39.772;2.718;2023-04-30T02:21:23;6.35;;;2.95;;
51459;SDS011;37534;39.772;2.718;2023-04-30T02:23:48;5.65;;;2.17;;
51459;SDS011;37534;39.772;2.718;2023-04-30T02:26:14;11.15;;;2.78;;
51459;SDS011;37534;39.772;2.718;2023-04-30T02:28:39;12.60;;;3.35;;
51459;SDS011;37534;39.772;2.718;2023-04-30T02:31:06;8.65;;;3.40;;
51459;SDS011;37534;39.772;2.718;2023-04-30T02:33:32;6.15;;;2.80;;
51459;SDS011;37534;39.772;2.718;2023-04-30T02:35:58;4.82;;;2.92;;
51459;SDS011;37534;39.772;2.718;2023-04-30T02:38:24;5.82;;;2.40;;
51459;SDS011;37534;39.772;2.718;2023-04-30T02:40:53;6.72;;;2.97;;
51459;SDS011;37534;39.772;2.718;2023-04-30T02:43:18;9.02;;;3.38;;
51459;SDS011;37534;39.772;2.718;2023-04-30T02:45:44;5.43;;;3.55;;
51459;SDS011;37534;39.772;2.718;2023-04-30T02:48:09;12.27;;;3.70;;
51459;SDS011;37534;39.772;2.718;2023-04-30T02:50:35;15.70;;;4.90;;
51459;SDS011;37534;39.772;2.718;2023-04-30T02:53:00;14.95;;;4.22;;
51459;SDS011;37534;39.772;2.718;2023-04-30T02:55:26;4.90;;;2.92;;
51459;SDS011;37534;39.772;2.718;2023-04-30T02:57:52;7.18;;;4.00;;
51459;SDS011;37534;39.772;2.718;2023-04-30T03:00:18;7.07;;;3.80;;
51459;SDS011;37534;39.772;2.718;2023-04-30T03:02:43;12.30;;;3.95;;
51459;SDS011;37534;39.772;2.718;2023-04-30T03:05:09;8.13;;;4.00;;
51459;SDS011;37534;39.772;2.718;2023-04-30T03:07:35;4.55;;;3.25;;
51459;SDS011;37534;39.772;2.718;2023-04-30T03:10:01;7.40;;;2.85;;
51459;SDS011;37534;39.772;2.718;2023-04-30T03:12:26;9.32;;;4.70;;
51459;SDS011;37534;39.772;2.718;2023-04-30T03:14:52;8.45;;;4.25;;
51459;SDS011;37534;39.772;2.718;2023-04-30T03:17:17;9.18;;;4.65;;
51459;SDS011;37534;39.772;2.718;2023-04-30T03:19:43;10.10;;;4.07;;
51459;SDS011;37534;39.772;2.718;2023-04-30T03:22:10;6.30;;;3.85;;
51459;SDS011;37534;39.772;2.718;2023-04-30T03:24:35;5.60;;;3.47;;
51459;SDS011;37534;39.772;2.718;2023-04-30T03:27:01;8.95;;;3.78;;
51459;SDS011;37534;39.772;2.718;2023-04-30T03:29:27;9.95;;;3.33;;
51459;SDS011;37534;39.772;2.718;2023-04-30T03:31:52;8.52;;;3.83;;
51459;SDS011;37534;39.772;2.718;2023-04-30T03:34:18;6.07;;;3.45;;
51459;SDS011;37534;39.772;2.718;2023-04-30T03:36:43;5.68;;;3.78;;
51459;SDS011;37534;39.772;2.718;2023-04-30T03:39:09;7.82;;;3.60;;
51459;SDS011;37534;39.772;2.718;2023-04-30T03:41:35;11.82;;;3.78;;
51459;SDS011;37534;39.772;2.718;2023-04-30T03:44:00;5.95;;;3.60;;
51459;SDS011;37534;39.772;2.718;2023-04-30T03:46:26;4.35;;;3.35;;
51459;SDS011;37534;39.772;2.718;2023-04-30T03:48:52;5.85;;;3.78;;
51459;SDS011;37534;39.772;2.718;2023-04-30T03:51:18;6.15;;;3.38;;
51459;SDS011;37534;39.772;2.718;2023-04-30T03:53:45;6.55;;;2.85;;
51459;SDS011;37534;39.772;2.718;2023-04-30T03:56:10;5.80;;;4.43;;
51459;SDS011;37534;39.772;2.718;2023-04-30T03:58:36;7.72;;;3.55;;
51459;SDS011;37534;39.772;2.718;2023-04-30T04:01:02;5.82;;;3.97;;
51459;SDS011;37534;39.772;2.718;2023-04-30T04:03:28;10.23;;;4.43;;
51459;SDS011;37534;39.772;2.718;2023-04-30T04:05:54;14.00;;;4.75;;
51459;SDS011;37534;39.772;2.718;2023-04-30T04:08:20;3.90;;;3.25;;
51459;SDS011;37534;39.772;2.718;2023-04-30T04:10:45;16.02;;;4.68;;
51459;SDS011;37534;39.772;2.718;2023-04-30T04:13:11;4.80;;;3.50;;
51459;SDS011;37534;39.772;2.718;2023-04-30T04:15:36;6.65;;;2.97;;
51459;SDS011;37534;39.772;2.718;2023-04-30T04:18:02;5.05;;;4.07;;
51459;SDS011;37534;39.772;2.718;2023-04-30T04:20:27;4.63;;;3.70;;
51459;SDS011;37534;39.772;2.718;2023-04-30T04:22:54;6.40;;;3.05;;
51459;SDS011;37534;39.772;2.718;2023-04-30T04:25:20;6.47;;;3.33;;
51459;SDS011;37534;39.772;2.718;2023-04-30T04:27:48;7.68;;;3.53;;
51459;SDS011;37534;39.772;2.718;2023-04-30T04:30:15;6.45;;;3.63;;
51459;SDS011;37534;39.772;2.718;2023-04-30T04:32:40;4.15;;;3.58;;
51459;SDS011;37534;39.772;2.718;2023-04-30T04:35:12;6.88;;;4.30;;
51459;SDS011;37534;39.772;2.718;2023-04-30T04:37:39;7.32;;;4.38;;
51459;SDS011;37534;39.772;2.718;2023-04-30T04:40:05;3.60;;;3.30;;
51459;SDS011;37534;39.772;2.718;2023-04-30T04:42:31;4.78;;;3.55;;
51459;SDS011;37534;39.772;2.718;2023-04-30T04:44:56;5.65;;;3.58;;
51459;SDS011;37534;39.772;2.718;2023-04-30T04:47:22;6.72;;;4.32;;
51459;SDS011;37534;39.772;2.718;2023-04-30T04:49:48;6.20;;;4.20;;
51459;SDS011;37534;39.772;2.718;2023-04-30T04:52:14;7.50;;;4.13;;
51459;SDS011;37534;39.772;2.718;2023-04-30T04:54:39;6.00;;;3.83;;
51459;SDS011;37534;39.772;2.718;2023-04-30T04:57:05;8.05;;;3.53;;
51459;SDS011;37534;39.772;2.718;2023-04-30T04:59:30;10.38;;;4.38;;
51459;SDS011;37534;39.772;2.718;2023-04-30T05:01:56;4.68;;;3.70;;
51459;SDS011;37534;39.772;2.718;2023-04-30T05:04:21;5.93;;;3.70;;
51459;SDS011;37534;39.772;2.718;2023-04-30T05:06:47;4.38;;;3.85;;
51459;SDS011;37534;39.772;2.718;2023-04-30T05:09:12;7.03;;;3.65;;
51459;SDS011;37534;39.772;2.718;2023-04-30T05:11:38;6.10;;;4.43;;
51459;SDS011;37534;39.772;2.718;2023-04-30T05:14:05;6.90;;;3.65;;
51459;SDS011;37534;39.772;2.718;2023-04-30T05:16:31;10.10;;;3.67;;
51459;SDS011;37534;39.772;2.718;2023-04-30T05:18:56;6.68;;;3.38;;
51459;SDS011;37534;39.772;2.718;2023-04-30T05:21:22;7.88;;;3.83;;
51459;SDS011;37534;39.772;2.718;2023-04-30T05:23:47;3.53;;;3.22;;
51459;SDS011;37534;39.772;2.718;2023-04-30T05:26:13;5.22;;;4.25;;
51459;SDS011;37534;39.772;2.718;2023-04-30T05:28:38;4.15;;;3.55;;
51459;SDS011;37534;39.772;2.718;2023-04-30T05:31:05;7.15;;;3.88;;
51459;SDS011;37534;39.772;2.718;2023-04-30T05:33:30;4.97;;;3.78;;
51459;SDS011;37534;39.772;2.718;2023-04-30T05:35:56;3.70;;;3.35;;
51459;SDS011;37534;39.772;2.718;2023-04-30T05:38:21;4.03;;;3.58;;
51459;SDS011;37534;39.772;2.718;2023-04-30T05:40:47;4.97;;;3.08;;
51459;SDS011;37534;39.772;2.718;2023-04-30T05:43:12;5.43;;;3.60;;
51459;SDS011;37534;39.772;2.718;2023-04-30T05:45:38;4.75;;;3.20;;
51459;SDS011;37534;39.772;2.718;2023-04-30T05:48:04;6.70;;;3.35;;
51459;SDS011;37534;39.772;2.718;2023-04-30T05:50:29;8.52;;;4.90;;
51459;SDS011;37534;39.772;2.718;2023-04-30T05:52:55;6.72;;;4.60;;
51459;SDS011;37534;39.772;2.718;2023-04-30T05:55:21;8.55;;;6.53;;
51459;SDS011;37534;39.772;2.718;2023-04-30T05:57:46;9.20;;;6.25;;
51459;SDS011;37534;39.772;2.718;2023-04-30T06:00:12;4.53;;;4.20;;
51459;SDS011;37534;39.772;2.718;2023-04-30T06:02:38;6.38;;;4.72;;
51459;SDS011;37534;39.772;2.718;2023-04-30T06:05:04;7.10;;;4.43;;
51459;SDS011;37534;39.772;2.718;2023-04-30T06:07:31;6.15;;;4.00;;
51459;SDS011;37534;39.772;2.718;2023-04-30T06:09:57;4.10;;;3.78;;
51459;SDS011;37534;39.772;2.718;2023-04-30T06:12:23;4.20;;;3.65;;
51459;SDS011;37534;39.772;2.718;2023-04-30T06:14:48;5.50;;;4.82;;
51459;SDS011;37534;39.772;2.718;2023-04-30T06:17:14;5.40;;;4.68;;
51459;SDS011;37534;39.772;2.718;2023-04-30T06:19:40;5.60;;;4.78;;
51459;SDS011;37534;39.772;2.718;2023-04-30T06:22:06;6.65;;;5.50;;
51459;SDS011;37534;39.772;2.718;2023-04-30T06:24:33;5.93;;;5.10;;
51459;SDS011;37534;39.772;2.718;2023-04-30T06:26:59;12.20;;;7.03;;
51459;SDS011;37534;39.772;2.718;2023-04-30T06:29:25;8.13;;;7.30;;
51459;SDS011;37534;39.772;2.718;2023-04-30T06:31:50;7.25;;;6.40;;
51459;SDS011;37534;39.772;2.718;2023-04-30T06:34:19;21.25;;;7.97;;
51459;SDS011;37534;39.772;2.718;2023-04-30T06:36:45;15.25;;;8.80;;
51459;SDS011;37534;39.772;2.718;2023-04-30T06:39:12;11.05;;;7.78;;
51459;SDS011;37534;39.772;2.718;2023-04-30T06:41:39;7.53;;;5.28;;
51459;SDS011;37534;39.772;2.718;2023-04-30T06:44:05;8.43;;;4.68;;
51459;SDS011;37534;39.772;2.718;2023-04-30T06:46:32;8.32;;;7.50;;
51459;SDS011;37534;39.772;2.718;2023-04-30T06:48:58;7.22;;;6.03;;
51459;SDS011;37534;39.772;2.718;2023-04-30T06:51:24;10.55;;;5.93;;
51459;SDS011;37534;39.772;2.718;2023-04-30T06:53:50;9.88;;;5.70;;
51459;SDS011;37534;39.772;2.718;2023-04-30T06:56:17;6.05;;;5.43;;
51459;SDS011;37534;39.772;2.718;2023-04-30T06:58:42;6.18;;;4.72;;
51459;SDS011;37534;39.772;2.718;2023-04-30T07:01:09;5.35;;;4.82;;
51459;SDS011;37534;39.772;2.718;2023-04-30T07:03:34;6.60;;;5.57;;
51459;SDS011;37534;39.772;2.718;2023-04-30T07:06:00;5.05;;;4.43;;
51459;SDS011;37534;39.772;2.718;2023-04-30T07:08:25;5.85;;;4.80;;
51459;SDS011;37534;39.772;2.718;2023-04-30T07:10:51;22.67;;;16.17;;
51459;SDS011;37534;39.772;2.718;2023-04-30T07:13:16;41.22;;;22.58;;
51459;SDS011;37534;39.772;2.718;2023-04-30T07:15:42;28.00;;;18.98;;
51459;SDS011;37534;39.772;2.718;2023-04-30T07:18:08;27.50;;;15.50;;
51459;SDS011;37534;39.772;2.718;2023-04-30T07:20:34;21.52;;;14.02;;
51459;SDS011;37534;39.772;2.718;2023-04-30T07:22:59;15.85;;;12.93;;
51459;SDS011;37534;39.772;2.718;2023-04-30T07:25:25;13.45;;;11.52;;
51459;SDS011;37534;39.772;2.718;2023-04-30T07:27:51;16.13;;;12.15;;
51459;SDS011;37534;39.772;2.718;2023-04-30T07:30:19;15.27;;;10.88;;
51459;SDS011;37534;39.772;2.718;2023-04-30T07:32:45;15.63;;;10.73;;
51459;SDS011;37534;39.772;2.718;2023-04-30T07:35:11;17.17;;;11.88;;
51459;SDS011;37534;39.772;2.718;2023-04-30T07:37:38;20.02;;;13.32;;
51459;SDS011;37534;39.772;2.718;2023-04-30T07:40:03;23.25;;;15.70;;
51459;SDS011;37534;39.772;2.718;2023-04-30T07:42:29;22.80;;;15.52;;
51459;SDS011;37534;39.772;2.718;2023-04-30T07:44:55;19.40;;;14.48;;
51459;SDS011;37534;39.772;2.718;2023-04-30T07:47:21;25.45;;;13.07;;
51459;SDS011;37534;39.772;2.718;2023-04-30T07:49:48;18.35;;;13.63;;
51459;SDS011;37534;39.772;2.718;2023-04-30T07:52:13;18.17;;;13.23;;
51459;SDS011;37534;39.772;2.718;2023-04-30T07:54:39;17.10;;;13.02;;
51459;SDS011;37534;39.772;2.718;2023-04-30T07:57:05;23.98;;;14.85;;
51459;SDS011;37534;39.772;2.718;2023-04-30T07:59:31;21.80;;;15.38;;
51459;SDS011;37534;39.772;2.718;2023-04-30T08:01:57;31.00;;;21.35;;
51459;SDS011;37534;39.772;2.718;2023-04-30T08:04:23;35.80;;;21.30;;
51459;SDS011;37534;39.772;2.718;2023-04-30T08:06:49;18.27;;;12.60;;
51459;SDS011;37534;39.772;2.718;2023-04-30T08:09:14;17.55;;;9.80;;
51459;SDS011;37534;39.772;2.718;2023-04-30T08:11:40;8.05;;;5.90;;
51459;SDS011;37534;39.772;2.718;2023-04-30T08:14:06;7.10;;;3.90;;
51459;SDS011;37534;39.772;2.718;2023-04-30T08:16:31;8.20;;;3.85;;
51459;SDS011;37534;39.772;2.718;2023-04-30T08:18:57;8.38;;;4.90;;
51459;SDS011;37534;39.772;2.718;2023-04-30T08:21:23;9.82;;;4.15;;
51459;SDS011;37534;39.772;2.718;2023-04-30T08:23:49;4.22;;;3.83;;
51459;SDS011;37534;39.772;2.718;2023-04-30T08:26:14;8.73;;;5.50;;
51459;SDS011;37534;39.772;2.718;2023-04-30T08:28:40;9.98;;;5.97;;
51459;SDS011;37534;39.772;2.718;2023-04-30T08:31:05;9.43;;;6.25;;
51459;SDS011;37534;39.772;2.718;2023-04-30T08:33:31;6.13;;;4.57;;
51459;SDS011;37534;39.772;2.718;2023-04-30T08:35:57;7.43;;;3.95;;
51459;SDS011;37534;39.772;2.718;2023-04-30T08:38:23;6.72;;;3.20;;
51459;SDS011;37534;39.772;2.718;2023-04-30T08:40:55;4.68;;;2.97;;
51459;SDS011;37534;39.772;2.718;2023-04-30T08:43:31;6.65;;;2.85;;
51459;SDS011;37534;39.772;2.718;2023-04-30T08:45:59;4.43;;;2.83;;
51459;SDS011;37534;39.772;2.718;2023-04-30T08:48:25;5.38;;;3.00;;
51459;SDS011;37534;39.772;2.718;2023-04-30T08:50:52;5.85;;;3.75;;
51459;SDS011;37534;39.772;2.718;2023-04-30T08:53:17;3.97;;;3.17;;
51459;SDS011;37534;39.772;2.718;2023-04-30T08:55:45;10.15;;;9.00;;
51459;SDS011;37534;39.772;2.718;2023-04-30T08:58:12;37.70;;;18.70;;
51459;SDS011;37534;39.772;2.718;2023-04-30T09:00:37;29.92;;;15.95;;
51459;SDS011;37534;39.772;2.718;2023-04-30T09:03:05;16.52;;;6.05;;
51459;SDS011;37534;39.772;2.718;2023-04-30T09:05:32;4.75;;;3.58;;
51459;SDS011;37534;39.772;2.718;2023-04-30T09:07:57;4.72;;;3.58;;
51459;SDS011;37534;39.772;2.718;2023-04-30T09:10:23;5.60;;;3.40;;
51459;SDS011;37534;39.772;2.718;2023-04-30T09:15:28;7.80;;;3.42;;
51459;SDS011;37534;39.772;2.718;2023-04-30T09:18:05;2.78;;;2.45;;
51459;SDS011;37534;39.772;2.718;2023-04-30T09:23:27;8.07;;;3.03;;
51459;SDS011;37534;39.772;2.718;2023-04-30T09:25:54;4.38;;;2.78;;
51459;SDS011;37534;39.772;2.718;2023-04-30T09:28:21;6.05;;;1.92;;
51459;SDS011;37534;39.772;2.718;2023-04-30T09:30:49;10.68;;;2.13;;
51459;SDS011;37534;39.772;2.718;2023-04-30T09:33:16;4.47;;;2.47;;
51459;SDS011;37534;39.772;2.718;2023-04-30T09:35:42;3.50;;;2.70;;
51459;SDS011;37534;39.772;2.718;2023-04-30T09:38:08;5.38;;;2.10;;
51459;SDS011;37534;39.772;2.718;2023-04-30T09:40:50;7.18;;;4.18;;
51459;SDS011;37534;39.772;2.718;2023-04-30T09:43:15;7.57;;;2.78;;
51459;SDS011;37534;39.772;2.718;2023-04-30T09:45:41;7.60;;;4.88;;
51459;SDS011;37534;39.772;2.718;2023-04-30T09:48:23;4.68;;;3.40;;
51459;SDS011;37534;39.772;2.718;2023-04-30T09:50:52;15.45;;;3.63;;
51459;SDS011;37534;39.772;2.718;2023-04-30T09:53:18;4.25;;;2.33;;
51459;SDS011;37534;39.772;2.718;2023-04-30T09:55:48;1.50;;;1.10;;
51459;SDS011;37534;39.772;2.718;2023-04-30T09:58:15;6.13;;;2.73;;
51459;SDS011;37534;39.772;2.718;2023-04-30T10:00:42;4.28;;;2.25;;
51459;SDS011;37534;39.772;2.718;2023-04-30T10:03:10;1.90;;;1.77;;
51459;SDS011;37534;39.772;2.718;2023-04-30T10:05:44;3.35;;;2.00;;
51459;SDS011;37534;39.772;2.718;2023-04-30T10:11:08;3.50;;;2.50;;
51459;SDS011;37534;39.772;2.718;2023-04-30T10:13:42;5.03;;;3.65;;
51459;SDS011;37534;39.772;2.718;2023-04-30T10:16:25;7.15;;;2.88;;
51459;SDS011;37534;39.772;2.718;2023-04-30T10:19:53;3.25;;;2.22;;
51459;SDS011;37534;39.772;2.718;2023-04-30T10:21:58;3.70;;;2.25;;
51459;SDS011;37534;39.772;2.718;2023-04-30T10:24:25;6.25;;;2.95;;
51459;SDS011;37534;39.772;2.718;2023-04-30T10:26:51;4.88;;;2.28;;
51459;SDS011;37534;39.772;2.718;2023-04-30T10:29:17;2.20;;;1.70;;
51459;SDS011;37534;39.772;2.718;2023-04-30T10:31:52;5.97;;;2.22;;
51459;SDS011;37534;39.772;2.718;2023-04-30T10:37:14;3.90;;;2.05;;
51459;SDS011;37534;39.772;2.718;2023-04-30T10:39:43;5.82;;;2.83;;
51459;SDS011;37534;39.772;2.718;2023-04-30T10:42:09;6.65;;;2.10;;
51459;SDS011;37534;39.772;2.718;2023-04-30T10:44:36;8.15;;;2.92;;
51459;SDS011;37534;39.772;2.718;2023-04-30T10:47:02;9.32;;;2.63;;
51459;SDS011;37534;39.772;2.718;2023-04-30T10:49:28;4.78;;;3.28;;
51459;SDS011;37534;39.772;2.718;2023-04-30T10:51:54;4.15;;;2.63;;
51459;SDS011;37534;39.772;2.718;2023-04-30T10:54:28;1.98;;;1.60;;
51459;SDS011;37534;39.772;2.718;2023-04-30T10:59:51;4.05;;;1.65;;
51459;SDS011;37534;39.772;2.718;2023-04-30T11:02:17;12.65;;;8.23;;
51459;SDS011;37534;39.772;2.718;2023-04-30T11:07:27;9.80;;;2.85;;
51459;SDS011;37534;39.772;2.718;2023-04-30T11:09:53;3.50;;;2.22;;
51459;SDS011;37534;39.772;2.718;2023-04-30T11:12:21;2.63;;;1.83;;
51459;SDS011;37534;39.772;2.718;2023-04-30T11:14:53;4.90;;;1.50;;
51459;SDS011;37534;39.772;2.718;2023-04-30T11:17:25;1.45;;;0.85;;
51459;SDS011;37534;39.772;2.718;2023-04-30T11:19:52;1.55;;;1.15;;
51459;SDS011;37534;39.772;2.718;2023-04-30T11:22:20;1.70;;;1.02;;
51459;SDS011;37534;39.772;2.718;2023-04-30T11:24:51;5.38;;;2.03;;
51459;SDS011;37534;39.772;2.718;2023-04-30T11:27:26;1.33;;;1.23;;
51459;SDS011;37534;39.772;2.718;2023-04-30T11:29:53;1.27;;;1.08;;
51459;SDS011;37534;39.772;2.718;2023-04-30T11:32:21;1.35;;;1.15;;
51459;SDS011;37534;39.772;2.718;2023-04-30T11:34:48;2.17;;;1.33;;
51459;SDS011;37534;39.772;2.718;2023-04-30T11:37:18;3.13;;;1.25;;
51459;SDS011;37534;39.772;2.718;2023-04-30T11:39:46;2.15;;;1.38;;
51459;SDS011;37534;39.772;2.718;2023-04-30T11:42:19;8.90;;;1.95;;
51459;SDS011;37534;39.772;2.718;2023-04-30T11:44:45;4.53;;;2.55;;
51459;SDS011;37534;39.772;2.718;2023-04-30T11:47:12;4.18;;;2.47;;
51459;SDS011;37534;39.772;2.718;2023-04-30T11:49:38;2.85;;;1.98;;
51459;SDS011;37534;39.772;2.718;2023-04-30T11:52:04;6.18;;;1.90;;
51459;SDS011;37534;39.772;2.718;2023-04-30T11:54:30;3.38;;;1.83;;
51459;SDS011;37534;39.772;2.718;2023-04-30T11:56:56;3.45;;;1.95;;
51459;SDS011;37534;39.772;2.718;2023-04-30T11:59:27;4.78;;;1.70;;
51459;SDS011;37534;39.772;2.718;2023-04-30T12:01:54;1.88;;;1.60;;
51459;SDS011;37534;39.772;2.718;2023-04-30T12:04:20;3.28;;;1.98;;
51459;SDS011;37534;39.772;2.718;2023-04-30T12:06:46;7.95;;;2.22;;
51459;SDS011;37534;39.772;2.718;2023-04-30T12:09:11;3.00;;;1.80;;
51459;SDS011;37534;39.772;2.718;2023-04-30T12:11:37;2.60;;;1.45;;
51459;SDS011;37534;39.772;2.718;2023-04-30T12:14:04;2.63;;;1.88;;
51459;SDS011;37534;39.772;2.718;2023-04-30T12:16:40;2.13;;;1.77;;
51459;SDS011;37534;39.772;2.718;2023-04-30T12:19:06;7.28;;;3.03;;
51459;SDS011;37534;39.772;2.718;2023-04-30T12:21:33;3.30;;;2.55;;
51459;SDS011;37534;39.772;2.718;2023-04-30T12:23:59;3.30;;;2.45;;
51459;SDS011;37534;39.772;2.718;2023-04-30T12:26:33;2.35;;;2.10;;
51459;SDS011;37534;39.772;2.718;2023-04-30T12:29:02;8.55;;;2.15;;
51459;SDS011;37534;39.772;2.718;2023-04-30T12:31:30;3.50;;;2.05;;
51459;SDS011;37534;39.772;2.718;2023-04-30T12:33:57;2.13;;;1.90;;
51459;SDS011;37534;39.772;2.718;2023-04-30T12:36:28;1.95;;;1.70;;
51459;SDS011;37534;39.772;2.718;2023-04-30T12:39:02;4.53;;;2.10;;
51459;SDS011;37534;39.772;2.718;2023-04-30T12:41:36;2.47;;;1.63;;
51459;SDS011;37534;39.772;2.718;2023-04-30T12:44:21;2.13;;;1.38;;
51459;SDS011;37534;39.772;2.718;2023-04-30T12:46:52;5.18;;;1.50;;
51459;SDS011;37534;39.772;2.718;2023-04-30T12:49:28;4.30;;;2.20;;
51459;SDS011;37534;39.772;2.718;2023-04-30T12:52:05;3.72;;;1.40;;
51459;SDS011;37534;39.772;2.718;2023-04-30T12:54:33;4.10;;;2.92;;
51459;SDS011;37534;39.772;2.718;2023-04-30T12:57:04;4.00;;;2.67;;
51459;SDS011;37534;39.772;2.718;2023-04-30T12:59:38;3.97;;;2.88;;
51459;SDS011;37534;39.772;2.718;2023-04-30T13:02:22;3.40;;;2.05;;
51459;SDS011;37534;39.772;2.718;2023-04-30T13:04:49;8.43;;;3.80;;
51459;SDS011;37534;39.772;2.718;2023-04-30T13:07:15;11.55;;;8.15;;
51459;SDS011;37534;39.772;2.718;2023-04-30T13:09:40;18.60;;;10.68;;
51459;SDS011;37534;39.772;2.718;2023-04-30T13:12:06;14.15;;;9.70;;
51459;SDS011;37534;39.772;2.718;2023-04-30T13:14:32;21.13;;;11.93;;
51459;SDS011;37534;39.772;2.718;2023-04-30T13:16:58;20.73;;;11.57;;
51459;SDS011;37534;39.772;2.718;2023-04-30T13:19:24;10.82;;;7.60;;
51459;SDS011;37534;39.772;2.718;2023-04-30T13:21:50;13.55;;;7.28;;
51459;SDS011;37534;39.772;2.718;2023-04-30T13:24:16;5.38;;;4.88;;
51459;SDS011;37534;39.772;2.718;2023-04-30T13:26:41;9.27;;;3.97;;
51459;SDS011;37534;39.772;2.718;2023-04-30T13:29:07;7.43;;;5.35;;
51459;SDS011;37534;39.772;2.718;2023-04-30T13:31:33;6.30;;;4.68;;
51459;SDS011;37534;39.772;2.718;2023-04-30T13:33:58;6.95;;;4.85;;
51459;SDS011;37534;39.772;2.718;2023-04-30T13:36:24;8.48;;;3.67;;
51459;SDS011;37534;39.772;2.718;2023-04-30T13:38:51;11.82;;;3.33;;
51459;SDS011;37534;39.772;2.718;2023-04-30T13:41:17;2.50;;;2.15;;
51459;SDS011;37534;39.772;2.718;2023-04-30T13:43:42;1.88;;;1.77;;
51459;SDS011;37534;39.772;2.718;2023-04-30T13:46:10;3.85;;;1.88;;
51459;SDS011;37534;39.772;2.718;2023-04-30T13:48:36;4.10;;;1.48;;
51459;SDS011;37534;39.772;2.718;2023-04-30T13:51:01;2.47;;;1.85;;
51459;SDS011;37534;39.772;2.718;2023-04-30T13:53:27;1.40;;;1.30;;
51459;SDS011;37534;39.772;2.718;2023-04-30T13:55:52;2.88;;;1.73;;
51459;SDS011;37534;39.772;2.718;2023-04-30T13:58:18;2.58;;;1.60;;
51459;SDS011;37534;39.772;2.718;2023-04-30T14:00:44;4.82;;;1.98;;
51459;SDS011;37534;39.772;2.718;2023-04-30T14:03:09;1.15;;;0.93;;
51459;SDS011;37534;39.772;2.718;2023-04-30T14:05:36;0.95;;;0.75;;
51459;SDS011;37534;39.772;2.718;2023-04-30T14:08:02;1.05;;;0.90;;
51459;SDS011;37534;39.772;2.718;2023-04-30T14:10:29;1.13;;;0.95;;
51459;SDS011;37534;39.772;2.718;2023-04-30T14:12:54;1.50;;;1.15;;
51459;SDS011;37534;39.772;2.718;2023-04-30T14:15:20;2.20;;;0.60;;
51459;SDS011;37534;39.772;2.718;2023-04-30T14:17:45;0.60;;;0.60;;
51459;SDS011;37534;39.772;2.718;2023-04-30T14:20:11;6.53;;;1.17;;
51459;SDS011;37534;39.772;2.718;2023-04-30T14:22:37;1.23;;;0.70;;
51459;SDS011;37534;39.772;2.718;2023-04-30T14:25:03;1.35;;;1.00;;
51459;SDS011;37534;39.772;2.718;2023-04-30T14:27:29;3.10;;;1.50;;
51459;SDS011;37534;39.772;2.718;2023-04-30T14:29:55;3.67;;;1.20;;
51459;SDS011;37534;39.772;2.718;2023-04-30T14:32:23;1.85;;;1.20;;
51459;SDS011;37534;39.772;2.718;2023-04-30T14:34:52;1.45;;;0.90;;
51459;SDS011;37534;39.772;2.718;2023-04-30T14:37:18;1.27;;;0.95;;
51459;SDS011;37534;39.772;2.718;2023-04-30T14:39:44;1.63;;;1.30;;
51459;SDS011;37534;39.772;2.718;2023-04-30T14:42:10;0.93;;;0.88;;
51459;SDS011;37534;39.772;2.718;2023-04-30T14:44:36;3.72;;;1.50;;
51459;SDS011;37534;39.772;2.718;2023-04-30T14:47:02;1.38;;;1.13;;
51459;SDS011;37534;39.772;2.718;2023-04-30T14:49:28;1.20;;;1.10;;
51459;SDS011;37534;39.772;2.718;2023-04-30T14:51:55;2.05;;;1.45;;
51459;SDS011;37534;39.772;2.718;2023-04-30T14:54:20;2.67;;;1.10;;
51459;SDS011;37534;39.772;2.718;2023-04-30T14:56:46;1.60;;;1.50;;
51459;SDS011;37534;39.772;2.718;2023-04-30T14:59:12;7.90;;;1.33;;
51459;SDS011;37534;39.772;2.718;2023-04-30T15:01:37;6.15;;;2.33;;
51459;SDS011;37534;39.772;2.718;2023-04-30T15:04:03;2.28;;;1.30;;
51459;SDS011;37534;39.772;2.718;2023-04-30T15:06:29;6.10;;;1.77;;
51459;SDS011;37534;39.772;2.718;2023-04-30T15:08:55;1.20;;;1.17;;
51459;SDS011;37534;39.772;2.718;2023-04-30T15:11:21;7.25;;;1.33;;